Church Hill, Tennessee
Current Conditions -  °F | °C
As of 9:53 PM on Sunday 21 Dec 2014 (Local Time) from KTRI Reporting Station
Broken Clouds Broken Clouds  
Wind Chill: 39°   Ceiling: 25000
Heat Index: 42°   Visibility: 10mi
Dew Point: 34°   Wind: 5mph
Humidity: 73%   Direction: 90°E
Pressure: 30.11"   Gusts: NA
Location:  36.52°N, 82.71°W
Report Text: KTRI 220253Z 09004KT 10SM BKN250 06/01 A3011 RMK AO2 SLP192 T00560011 55000
Loading
Personal Weather Stations






























Interactive Weather Map New forecast layout! Learn more

10-Day Weather Forecast

Advertisements
Track Severe Weather on mobile